< < Back
Terminal Aerodrome Forecast


Current Version              Previous Versions:   1  2  3  4  5  6  7  8  9  

Terminal Aerodrome Forecast

979
FTUS42 KFFC 231100
TAFFTY
TAF
KFTY 231126Z 2312/2412 33006KT P6SM SKC
     FM240700 02005KT P6SM SKC
     FM240800 06005KT P6SM SKC=



Latest METAR

274
SAUS70 KWBC 231100 RRC
MTRFTY
METAR KFTY 231053Z 32006KT 10SM CLR 13/09 A2991 RMK AO2 SLP123
T01330094


USA.gov is the U.S. government's official web portal to all federal, state and local government web resources and services.